Pruitt, Arkansas
Current Conditions -  °F | °C
As of 4:53 PM on Saturday 25 Oct 2014 (Local Time) from KHRO Reporting Station
Clear Clear  
Wind Chill: 84°   Ceiling: Unl
Heat Index: 84°   Visibility: 10mi
Dew Point: 61°   Wind: 5mph
Humidity: 46%   Direction: 330°NNW
Pressure: 30.05"   Gusts: NA
Location:  36.0842°N, 93.1502°W
Report Text: KHRO 252153Z AUTO 33004KT 10SM CLR 29/16 A3005 RMK AO2 SLP161 T02890161
Loading
Personal Weather Stations






























Interactive Weather Map
Tropical Storm Tracking
New forecast layout! Learn more

10-Day Weather Forecast

Advertisements
Track Severe Weather on mobile